METAR Analyzer

一覧表示

Hello, Guest. (Login)

RJCC/CTS  -  札幌/新千歳

観測日時
2022-09-30 06:30 (UTC) (15分前)
気温
21
露点
19
湿数
2
相対湿度
88.3%
QNH
1015.2hPa
推定現地気圧
1012.2hPa
推定海面気圧
1015.1hPa
体感温度
12.9
(無風時)
22.1
HI
21.5
気温前日比
-1
体感温度前日比
-2
HI前日比
-0.6
水平視程
>10000m
鉛直視程
データなし
雲底高度
No dense clouds
V/I
VMC (VFR)
RVR
No RVR data
卓越風
14kt from 160°
ガスト
No gust
降水
報告なし
その他の天気
報告なし
少しの(1/8) 層雲 @ 1000ft AGL / 散在する(4/8) 層雲 @ 1300ft AGL

RJCC 300630Z 16014KT 9999 FEW010 SCT013 21/19 Q1015 RMK 1ST010 4ST013 A2998

RJTT/HND  -  東京/羽田

観測日時
2022-09-30 06:30 (UTC) (15分前)
気温
26
露点
19
湿数
7
相対湿度
65.4%
QNH
1014.9hPa
推定現地気圧
1014.2hPa
推定海面気圧
1014.9hPa
体感温度
20.4
(無風時)
24.9
HI
26.4
気温前日比
+2
体感温度前日比
+3.5
HI前日比
+2.4
水平視程
>10000m
鉛直視程
データなし
雲底高度
No dense clouds
V/I
VMC (VFR)
RVR
No RVR data
卓越風
6kt from 80°
ガスト
No gust
降水
報告なし
その他の天気
報告なし
少しの(1/8) 積雲 @ 3000ft AGL

RJTT 300630Z 08006KT 9999 FEW030 26/19 Q1015 NOSIG RMK 1CU030 A2997

RJAA/NRT  -  東京/成田

観測日時
2022-09-30 06:30 (UTC) (15分前)
気温
26
露点
18
湿数
8
相対湿度
61.4%
QNH
1015.9hPa
推定現地気圧
1014.6hPa
推定海面気圧
1015.9hPa
体感温度
20
(無風時)
24.6
HI
26.3
気温前日比
+3
体感温度前日比
+3.1
HI前日比
+3.3
水平視程
>10000m
鉛直視程
データなし
雲底高度
No dense clouds
V/I
VMC (VFR)
RVR
No RVR data
卓越風
7kt from 40° (360° ~ 80°)
ガスト
No gust
降水
報告なし
その他の天気
報告なし
少しの(1/8) 積雲 @ 3000ft AGL

RJAA 300630Z 04007KT 360V080 9999 FEW030 26/18 Q1015 BECMG 08005KT RMK 1CU030 A3000

RJGG/NGO  -  名古屋/中部

観測日時
2022-09-30 06:30 (UTC) (15分前)
気温
26
露点
20
湿数
6
相対湿度
69.5%
QNH
1014.2hPa
推定現地気圧
1013.7hPa
推定海面気圧
1014.2hPa
体感温度
20.6
(無風時)
25.1
HI
26.5
気温前日比
+1
体感温度前日比
+0.4
HI前日比
+1.1
水平視程
>10000m
鉛直視程
データなし
雲底高度
No dense clouds
V/I
VMC (VFR)
RVR
No RVR data
卓越風
6kt from 200°
ガスト
No gust
降水
報告なし
その他の天気
報告なし
少しの(1/8) 積雲 @ 2500ft AGL

RJGG 300630Z 20006KT 9999 FEW025 26/20 Q1014 NOSIG RMK 1CU025 A2995

RJOO/ITM  -  大阪/伊丹

観測日時
2022-09-30 06:00 (UTC) (45分前)
気温
29
露点
17
湿数
12
相対湿度
48.4%
QNH
1013.2hPa
推定現地気圧
1011.8hPa
推定海面気圧
1013.2hPa
体感温度
23.3
(無風時)
25.9
HI
29.5
気温前日比
+3
体感温度前日比
+3.5
HI前日比
+3.6
水平視程
>10000m
鉛直視程
データなし
雲底高度
No dense clouds
V/I
VMC (VFR)
RVR
No RVR data
卓越風
4kt from VRB
ガスト
No gust
降水
報告なし
その他の天気
報告なし
少しの(2/8) 積雲 @ 2500ft AGL

RJOO 300600Z VRB04KT 9999 FEW025 29/17 Q1013 RMK 2CU025 A2992

RJBB/KIX  -  大阪/関西

観測日時
2022-09-30 06:30 (UTC) (15分前)
気温
26
露点
21
湿数
5
相対湿度
74%
QNH
1013hPa
推定現地気圧
1012.4hPa
推定海面気圧
1013.0hPa
体感温度
20.3
(無風時)
25.4
HI
26.6
気温前日比
+1
体感温度前日比
+0.9
HI前日比
+1.4
水平視程
>10000m
鉛直視程
データなし
雲底高度
No dense clouds
V/I
VMC (VFR)
RVR
No RVR data
卓越風
8kt from 260°
ガスト
No gust
降水
報告なし
その他の天気
報告なし
少しの雲 @ 2000ft AGL

RJBB 300630Z 26008KT 9999 FEW020 26/21 Q1013 NOSIG

RJFF/FUK  -  福岡

観測日時
2022-09-30 06:30 (UTC) (15分前)
気温
26
露点
19
湿数
7
相対湿度
65.4%
QNH
1014.2hPa
推定現地気圧
1013.1hPa
推定海面気圧
1014.1hPa
体感温度
19.7
(無風時)
24.9
HI
26.4
気温前日比
±0
体感温度前日比
+0.3
HI前日比
±0
水平視程
>10000m
鉛直視程
データなし
雲底高度
No dense clouds
V/I
VMC (VFR)
RVR
No RVR data
卓越風
9kt from 340°
ガスト
No gust
降水
報告なし
その他の天気
報告なし
少しの(1/8) 積雲 @ 2500ft AGL

RJFF 300630Z 34009KT 9999 FEW025 26/19 Q1014 NOSIG RMK 1CU025 A2995

ROAH/OKA  -  那覇

観測日時
2022-09-30 06:30 (UTC) (15分前)
気温
30
露点
24
湿数
6
相対湿度
70.3%
QNH
1014.2hPa
推定現地気圧
1013.8hPa
推定海面気圧
1014.1hPa
体感温度
24.8
(無風時)
28.3
HI
35.1
気温前日比
±0
体感温度前日比
-0.4
HI前日比
-2.3
水平視程
>10000m
鉛直視程
データなし
雲底高度
No dense clouds
V/I
VMC (VFR)
RVR
No RVR data
卓越風
11kt from 10°
ガスト
No gust
降水
弱いしゅう雨性の雨
その他の天気
報告なし
少しの(2/8) 積雲 @ 2000ft AGL

ROAH 300630Z 01011KT 9999 -SHRA FEW020 30/24 Q1014 RMK 2CU020 A2995

153.7msec